Time;durP1;ratioP1;P1;durP2;ratioP2;P2;SDS_P1;SDS_P2;PMS_P1;PMS_P2;Temp;Humidity;BMP_temperature;BMP_pressure;BME280_temperature;BME280_humidity;BME280_pressure;Samples;Min_cycle;Max_cycle;Signal;HPM_P1;HPM_P2
2022/04/17 00:00:25;;;;;;;17.27;6.68;;;;;;;;;;5048546;28;20056;-53
2022/04/17 00:02:51;;;;;;;16.27;7.32;;;;;;;;;;5043999;28;20970;-54
2022/04/17 00:05:17;;;;;;;16.20;6.70;;;;;;;;;;5028439;28;20092;-55
2022/04/17 00:07:44;;;;;;;18.75;6.93;;;;;;;;;;5046938;28;20013;-52
2022/04/17 00:10:10;;;;;;;17.23;6.70;;;;;;;;;;5048805;28;20029;-51
2022/04/17 00:12:37;;;;;;;17.98;7.18;;;;;;;;;;5048076;28;20029;-52
2022/04/17 00:15:04;;;;;;;19.33;7.20;;;;;;;;;;5048660;28;20033;-52
2022/04/17 00:17:30;;;;;;;12.25;5.93;;;;;;;;;;5045206;28;20566;-52
2022/04/17 00:19:56;;;;;;;13.50;5.88;;;;;;;;;;5028165;28;20044;-52
2022/04/17 00:22:23;;;;;;;20.48;7.05;;;;;;;;;;5039456;28;20071;-53
2022/04/17 00:24:49;;;;;;;15.90;5.95;;;;;;;;;;5048315;28;20029;-51
2022/04/17 00:27:15;;;;;;;15.75;6.93;;;;;;;;;;5047944;28;20108;-49
2022/04/17 00:29:44;;;;;;;14.23;6.38;;;;;;;;;;5048163;28;20147;-55
2022/04/17 00:32:10;;;;;;;14.25;6.50;;;;;;;;;;5046744;28;20053;-54
2022/04/17 00:34:37;;;;;;;15.25;7.00;;;;;;;;;;5050733;28;20060;-54
2022/04/17 00:37:04;;;;;;;14.50;5.85;;;;;;;;;;5052297;28;20033;-55
2022/04/17 00:39:30;;;;;;;16.75;6.30;;;;;;;;;;5052524;28;20039;-54
2022/04/17 00:41:56;;;;;;;17.38;5.88;;;;;;;;;;5051604;28;20487;-55
2022/04/17 00:44:22;;;;;;;14.40;6.05;;;;;;;;;;5052033;28;20036;-53
2022/04/17 00:46:48;;;;;;;14.90;6.30;;;;;;;;;;5051968;28;20025;-53
2022/04/17 00:49:15;;;;;;;15.75;5.85;;;;;;;;;;5051443;28;20021;-53
2022/04/17 00:51:42;;;;;;;14.48;6.28;;;;;;;;;;5052580;28;20065;-53
2022/04/17 00:54:12;;;;;;;14.98;5.75;;;;;;;;;;5051836;28;20075;-54
2022/04/17 00:56:38;;;;;;;15.43;5.97;;;;;;;;;;5051738;28;20033;-54
2022/04/17 00:59:09;;;;;;;15.30;6.53;;;;;;;;;;5051910;28;20032;-51
2022/04/17 01:01:36;;;;;;;13.52;5.50;;;;;;;;;;5050556;28;20025;-51
2022/04/17 01:04:03;;;;;;;16.50;5.55;;;;;;;;;;5051532;28;20479;-50
2022/04/17 01:06:29;;;;;;;12.73;5.80;;;;;;;;;;5051873;28;20037;-50
2022/04/17 01:08:55;;;;;;;13.80;5.43;;;;;;;;;;5045165;28;20026;-52
2022/04/17 01:11:22;;;;;;;13.40;5.65;;;;;;;;;;5046862;28;20395;-53
2022/04/17 01:13:48;;;;;;;11.85;5.18;;;;;;;;;;5051608;28;20032;-50
2022/04/17 01:16:17;;;;;;;14.68;5.82;;;;;;;;;;5049865;28;20572;-49
2022/04/17 01:19:03;;;;;;;16.23;5.38;;;;;;;;;;5051851;28;20064;-48
2022/04/17 01:21:34;;;;;;;15.23;5.63;;;;;;;;;;5052050;28;20043;-51
2022/04/17 01:26:56;;;;;;;11.90;5.68;;;;;;;;;;5051974;28;20040;-50
2022/04/17 01:29:32;;;;;;;11.73;5.63;;;;;;;;;;5050993;28;20025;-50
2022/04/17 01:32:01;;;;;;;11.00;5.15;;;;;;;;;;5050284;28;20091;-51
2022/04/17 01:34:28;;;;;;;13.52;5.72;;;;;;;;;;5051709;28;20115;-51
2022/04/17 01:36:55;;;;;;;12.35;5.03;;;;;;;;;;5051163;28;20561;-54
2022/04/17 01:39:22;;;;;;;11.65;4.93;;;;;;;;;;5050861;28;20074;-50
2022/04/17 01:41:48;;;;;;;12.70;5.45;;;;;;;;;;5051167;28;20036;-54
2022/04/17 01:44:18;;;;;;;12.30;5.13;;;;;;;;;;5050379;28;20044;-54
2022/04/17 01:46:44;;;;;;;14.18;6.20;;;;;;;;;;5049657;28;20037;-52
2022/04/17 01:49:11;;;;;;;14.75;5.97;;;;;;;;;;5051285;28;20403;-55
2022/04/17 01:51:38;;;;;;;14.50;5.97;;;;;;;;;;5050899;28;20716;-54
2022/04/17 01:54:25;;;;;;;11.18;4.85;;;;;;;;;;5051228;28;20040;-55
2022/04/17 01:56:52;;;;;;;14.40;6.22;;;;;;;;;;5050938;28;20029;-54
2022/04/17 01:59:19;;;;;;;12.05;5.53;;;;;;;;;;5050918;28;20037;-54
2022/04/17 02:01:45;;;;;;;13.57;5.10;;;;;;;;;;5049672;28;20051;-54
2022/04/17 02:04:11;;;;;;;11.20;5.32;;;;;;;;;;5050978;28;20047;-54
2022/04/17 02:06:39;;;;;;;11.55;5.60;;;;;;;;;;5050367;28;20033;-53
2022/04/17 02:09:07;;;;;;;11.95;5.07;;;;;;;;;;5050828;28;20028;-51
2022/04/17 02:11:34;;;;;;;12.13;5.28;;;;;;;;;;5050349;28;20082;-51
2022/04/17 02:14:00;;;;;;;10.55;4.35;;;;;;;;;;5050444;28;20083;-54
2022/04/17 02:16:26;;;;;;;10.35;4.53;;;;;;;;;;5048991;28;20079;-53
2022/04/17 02:18:53;;;;;;;12.55;5.18;;;;;;;;;;5050798;28;20119;-55
2022/04/17 02:21:19;;;;;;;10.75;4.50;;;;;;;;;;5050228;28;20037;-52
2022/04/17 02:23:46;;;;;;;10.55;4.70;;;;;;;;;;5050453;28;20025;-53
2022/04/17 02:26:13;;;;;;;11.77;4.65;;;;;;;;;;5050853;28;20029;-53
2022/04/17 02:28:40;;;;;;;8.98;4.28;;;;;;;;;;5050209;28;20025;-53
2022/04/17 02:31:06;;;;;;;11.05;4.13;;;;;;;;;;5043372;28;20049;-54
2022/04/17 02:33:33;;;;;;;12.20;4.45;;;;;;;;;;5049869;28;20104;-54
2022/04/17 02:35:59;;;;;;;9.45;4.32;;;;;;;;;;5049977;28;20120;-54
2022/04/17 02:38:25;;;;;;;8.65;4.00;;;;;;;;;;5050050;28;20475;-54
2022/04/17 02:40:51;;;;;;;10.75;4.60;;;;;;;;;;5050048;28;20422;-53
2022/04/17 02:43:18;;;;;;;9.90;4.80;;;;;;;;;;5049495;28;20156;-55
2022/04/17 02:45:45;;;;;;;10.93;4.38;;;;;;;;;;5048536;28;20040;-55
2022/04/17 02:48:11;;;;;;;11.60;5.07;;;;;;;;;;5049574;28;20044;-55
2022/04/17 02:50:37;;;;;;;9.88;4.28;;;;;;;;;;5050268;28;20037;-50
2022/04/17 02:53:04;;;;;;;10.32;4.43;;;;;;;;;;5049346;28;20040;-55
2022/04/17 02:55:31;;;;;;;10.52;4.45;;;;;;;;;;5050037;28;20029;-53
2022/04/17 02:57:57;;;;;;;9.60;4.50;;;;;;;;;;5047872;28;20021;-55
2022/04/17 03:00:24;;;;;;;11.02;4.53;;;;;;;;;;5048822;28;20025;-54
2022/04/17 03:05:37;;;;;;;8.50;3.97;;;;;;;;;;5050127;28;20191;-54
2022/04/17 03:08:04;;;;;;;7.68;3.63;;;;;;;;;;5049119;28;20451;-55
2022/04/17 03:10:31;;;;;;;11.40;4.47;;;;;;;;;;5049942;28;20029;-51
2022/04/17 03:12:57;;;;;;;10.05;4.20;;;;;;;;;;5049142;28;20029;-55
2022/04/17 03:15:24;;;;;;;9.13;4.10;;;;;;;;;;5048160;28;20112;-53
2022/04/17 03:17:50;;;;;;;9.57;4.22;;;;;;;;;;5048781;28;20487;-55
2022/04/17 03:20:16;;;;;;;8.80;4.00;;;;;;;;;;5048994;28;20039;-54
2022/04/17 03:22:42;;;;;;;10.98;4.07;;;;;;;;;;5049224;28;20096;-52
2022/04/17 03:25:09;;;;;;;10.00;4.13;;;;;;;;;;5049255;28;20165;-54
2022/04/17 03:27:35;;;;;;;13.10;4.57;;;;;;;;;;5048921;28;20110;-53
2022/04/17 03:30:01;;;;;;;10.85;4.22;;;;;;;;;;5041030;28;20396;-53
2022/04/17 03:32:27;;;;;;;10.63;4.20;;;;;;;;;;5029432;28;20153;-53
2022/04/17 03:34:53;;;;;;;7.07;3.83;;;;;;;;;;5049426;28;20023;-55
2022/04/17 03:37:19;;;;;;;9.68;4.38;;;;;;;;;;5048893;28;20417;-50
2022/04/17 03:39:48;;;;;;;8.52;3.88;;;;;;;;;;5048807;28;20035;-52
2022/04/17 03:42:15;;;;;;;8.52;4.45;;;;;;;;;;5048962;28;20033;-55
2022/04/17 03:44:41;;;;;;;8.75;4.18;;;;;;;;;;5048248;28;20029;-52
2022/04/17 03:47:07;;;;;;;9.35;4.07;;;;;;;;;;5048522;28;20037;-53
2022/04/17 03:49:34;;;;;;;8.00;4.03;;;;;;;;;;5048393;28;20053;-54
2022/04/17 03:52:00;;;;;;;7.72;3.53;;;;;;;;;;5048173;28;20017;-54
2022/04/17 03:54:26;;;;;;;10.10;4.35;;;;;;;;;;5048120;28;20112;-51
2022/04/17 03:56:53;;;;;;;10.00;3.83;;;;;;;;;;5048076;28;20067;-55
2022/04/17 03:59:19;;;;;;;6.65;3.65;;;;;;;;;;5046868;28;20044;-53
2022/04/17 04:01:48;;;;;;;10.85;4.40;;;;;;;;;;5048469;28;20455;-54
2022/04/17 04:04:16;;;;;;;9.52;4.00;;;;;;;;;;5048049;28;20041;-53
2022/04/17 04:06:42;;;;;;;8.65;3.63;;;;;;;;;;5047141;28;20514;-53
2022/04/17 04:09:08;;;;;;;10.07;4.18;;;;;;;;;;5046252;28;20064;-53
2022/04/17 04:11:34;;;;;;;10.15;3.95;;;;;;;;;;5048413;28;20058;-55
2022/04/17 04:14:00;;;;;;;10.30;3.67;;;;;;;;;;5045972;28;20147;-53
2022/04/17 04:16:26;;;;;;;10.70;4.25;;;;;;;;;;5048565;28;20025;-54
2022/04/17 04:18:52;;;;;;;8.30;3.72;;;;;;;;;;5047235;28;20025;-52
2022/04/17 04:21:19;;;;;;;8.45;3.53;;;;;;;;;;5047624;28;20641;-54
2022/04/17 04:23:45;;;;;;;9.77;3.58;;;;;;;;;;5048848;28;20470;-52
2022/04/17 04:26:11;;;;;;;9.70;3.78;;;;;;;;;;5048097;28;20456;-56
2022/04/17 04:28:38;;;;;;;9.15;3.88;;;;;;;;;;5044598;28;20030;-53
2022/04/17 04:31:05;;;;;;;8.23;3.75;;;;;;;;;;5045957;28;20060;-52
2022/04/17 04:33:36;;;;;;;8.35;3.78;;;;;;;;;;5047663;28;20051;-54
2022/04/17 04:36:04;;;;;;;9.40;3.88;;;;;;;;;;5048020;28;20017;-54
2022/04/17 04:38:30;;;;;;;7.80;3.53;;;;;;;;;;5048503;28;20036;-51
2022/04/17 04:40:56;;;;;;;9.80;4.20;;;;;;;;;;5047505;28;20895;-54
2022/04/17 04:43:22;;;;;;;8.82;3.55;;;;;;;;;;5047914;28;20674;-55
2022/04/17 04:46:07;;;;;;;7.53;3.67;;;;;;;;;;5037059;28;20027;-56
2022/04/17 04:51:21;;;;;;;15.68;7.25;;;;;;;;;;5047847;28;20048;-53
2022/04/17 04:53:47;;;;;;;19.33;7.65;;;;;;;;;;5048363;28;20063;-57
2022/04/17 04:56:13;;;;;;;11.27;6.57;;;;;;;;;;5047560;28;20049;-50
2022/04/17 04:58:40;;;;;;;24.35;8.88;;;;;;;;;;5046923;28;20034;-52
2022/04/17 05:01:06;;;;;;;14.52;7.80;;;;;;;;;;5048723;28;20036;-53
2022/04/17 05:03:32;;;;;;;17.50;8.20;;;;;;;;;;5048748;28;20406;-51
2022/04/17 05:05:58;;;;;;;14.18;6.90;;;;;;;;;;5048630;28;20033;-50
2022/04/17 05:08:24;;;;;;;14.60;8.30;;;;;;;;;;5047319;28;20033;-50
2022/04/17 05:10:50;;;;;;;18.08;7.00;;;;;;;;;;5048307;28;20025;-53
2022/04/17 05:13:17;;;;;;;17.17;7.75;;;;;;;;;;5048953;28;20033;-50
2022/04/17 05:15:43;;;;;;;16.55;7.30;;;;;;;;;;5049280;28;20022;-53
2022/04/17 05:18:11;;;;;;;18.33;8.35;;;;;;;;;;5047596;28;20104;-54
2022/04/17 05:20:39;;;;;;;13.10;8.35;;;;;;;;;;5041341;28;20824;-53
2022/04/17 05:23:15;;;;;;;19.23;7.72;;;;;;;;;;5046145;28;20689;-54
2022/04/17 05:25:42;;;;;;;11.65;8.18;;;;;;;;;;5043574;28;20086;-50
2022/04/17 05:28:08;;;;;;;13.77;7.10;;;;;;;;;;5047807;28;20387;-54
2022/04/17 05:30:34;;;;;;;15.73;7.57;;;;;;;;;;5039736;28;20059;-53
2022/04/17 05:33:00;;;;;;;12.90;7.50;;;;;;;;;;5042878;28;20439;-55
2022/04/17 05:35:26;;;;;;;17.48;7.78;;;;;;;;;;5040611;28;20056;-53
2022/04/17 05:37:52;;;;;;;13.07;7.18;;;;;;;;;;5040607;28;20480;-55
2022/04/17 05:40:19;;;;;;;13.18;7.22;;;;;;;;;;5040801;28;20052;-53
2022/04/17 05:42:45;;;;;;;11.60;7.22;;;;;;;;;;5044467;28;20020;-53
2022/04/17 05:45:11;;;;;;;10.55;6.90;;;;;;;;;;5038976;28;20399;-55
2022/04/17 05:47:37;;;;;;;14.35;6.88;;;;;;;;;;5044476;28;20028;-50
2022/04/17 05:50:05;;;;;;;13.98;7.68;;;;;;;;;;5043883;28;20107;-54
2022/04/17 05:52:31;;;;;;;11.23;6.78;;;;;;;;;;5039014;28;20013;-52
2022/04/17 05:54:57;;;;;;;10.43;6.95;;;;;;;;;;5042210;28;20033;-51
2022/04/17 05:57:23;;;;;;;11.63;6.68;;;;;;;;;;5040952;28;20029;-54
2022/04/17 05:59:50;;;;;;;13.00;7.82;;;;;;;;;;5045851;28;20021;-57
2022/04/17 06:02:17;;;;;;;14.25;7.53;;;;;;;;;;5033489;28;20033;-51
2022/04/17 06:04:43;;;;;;;14.45;7.53;;;;;;;;;;5049208;28;20051;-53
2022/04/17 06:07:09;;;;;;;11.45;6.85;;;;;;;;;;5049964;28;20118;-54
2022/04/17 06:09:35;;;;;;;11.38;6.65;;;;;;;;;;5050415;28;20072;-56
2022/04/17 06:12:01;;;;;;;11.95;6.22;;;;;;;;;;5030379;28;20021;-55
2022/04/17 06:14:27;;;;;;;15.65;6.93;;;;;;;;;;5044516;28;20686;-53
2022/04/17 06:16:53;;;;;;;13.20;7.30;;;;;;;;;;5051028;28;20079;-53
2022/04/17 06:19:20;;;;;;;9.60;6.28;;;;;;;;;;5050232;28;20029;-51
2022/04/17 06:21:46;;;;;;;15.02;6.55;;;;;;;;;;5049906;28;20144;-55
2022/04/17 06:24:12;;;;;;;17.05;7.32;;;;;;;;;;5039459;28;20045;-55
2022/04/17 06:26:39;;;;;;;14.65;7.22;;;;;;;;;;5050069;28;20033;-52
2022/04/17 06:29:08;;;;;;;16.15;7.00;;;;;;;;;;5047918;28;20039;-54
2022/04/17 06:31:35;;;;;;;16.67;6.53;;;;;;;;;;5046204;28;20045;-56
2022/04/17 06:34:01;;;;;;;22.00;7.85;;;;;;;;;;5042479;28;20025;-53
2022/04/17 06:36:27;;;;;;;19.95;7.03;;;;;;;;;;5043858;28;20052;-51
2022/04/17 06:38:54;;;;;;;22.15;8.73;;;;;;;;;;5040431;28;20517;-55
2022/04/17 06:41:21;;;;;;;17.05;6.75;;;;;;;;;;5042058;28;20083;-56
2022/04/17 06:43:47;;;;;;;17.85;7.38;;;;;;;;;;5042195;28;20045;-54
2022/04/17 06:46:13;;;;;;;25.77;8.18;;;;;;;;;;5043455;28;20037;-55
2022/04/17 06:48:41;;;;;;;26.38;8.27;;;;;;;;;;5039603;28;20079;-55
2022/04/17 06:51:07;;;;;;;17.83;7.45;;;;;;;;;;5043193;28;20059;-54
2022/04/17 06:53:32;;;;;;;20.33;8.52;;;;;;;;;;5036984;28;20029;-54
2022/04/17 06:56:00;;;;;;;21.30;8.50;;;;;;;;;;5041373;28;20055;-56
2022/04/17 06:58:26;;;;;;;20.48;7.57;;;;;;;;;;5046633;28;20025;-51
2022/04/17 07:00:52;;;;;;;21.27;8.07;;;;;;;;;;5046168;28;20467;-53
2022/04/17 07:03:18;;;;;;;25.25;9.18;;;;;;;;;;5050965;28;20037;-54
2022/04/17 07:05:44;;;;;;;21.92;8.38;;;;;;;;;;5056059;28;20033;-53
2022/04/17 07:08:10;;;;;;;25.17;8.35;;;;;;;;;;5045246;28;20402;-55
2022/04/17 07:10:37;;;;;;;24.08;7.68;;;;;;;;;;5041486;28;20501;-55
2022/04/17 07:13:03;;;;;;;21.27;6.55;;;;;;;;;;5048788;28;20029;-56
2022/04/17 07:15:29;;;;;;;33.33;6.95;;;;;;;;;;5049527;28;20396;-56
2022/04/17 07:17:57;;;;;;;17.77;8.45;;;;;;;;;;5048858;28;20451;-55
2022/04/17 07:20:26;;;;;;;33.30;13.02;;;;;;;;;;5048491;28;20033;-54
2022/04/17 07:22:52;;;;;;;72.78;39.67;;;;;;;;;;5045725;28;20036;-53
2022/04/17 07:25:19;;;;;;;69.50;40.05;;;;;;;;;;5039435;28;20029;-56
2022/04/17 07:27:47;;;;;;;81.40;49.05;;;;;;;;;;5045725;28;20025;-53
2022/04/17 07:30:17;;;;;;;81.95;52.58;;;;;;;;;;5036770;28;20041;-54
2022/04/17 07:32:44;;;;;;;80.35;50.85;;;;;;;;;;5048559;28;20034;-53
2022/04/17 07:35:11;;;;;;;94.72;56.05;;;;;;;;;;5035462;28;20037;-54
2022/04/17 07:37:37;;;;;;;76.88;53.03;;;;;;;;;;5046530;28;20033;-51
2022/04/17 07:40:11;;;;;;;86.47;56.53;;;;;;;;;;5037284;28;20025;-57
2022/04/17 07:42:37;;;;;;;87.75;56.28;;;;;;;;;;5045065;28;20560;-57
2022/04/17 07:45:04;;;;;;;81.05;52.03;;;;;;;;;;5048225;28;20029;-53
2022/04/17 07:47:30;;;;;;;90.47;53.08;;;;;;;;;;5046875;28;20091;-57
2022/04/17 07:49:56;;;;;;;77.43;51.17;;;;;;;;;;5049162;28;20033;-52
2022/04/17 07:52:24;;;;;;;77.30;48.25;;;;;;;;;;5048561;28;20506;-54
2022/04/17 07:54:50;;;;;;;74.40;50.17;;;;;;;;;;5041974;28;20533;-56
2022/04/17 07:57:16;;;;;;;78.20;51.70;;;;;;;;;;5040417;28;20029;-55
2022/04/17 07:59:42;;;;;;;61.53;46.30;;;;;;;;;;5048178;28;20029;-52
2022/04/17 08:02:21;;;;;;;66.63;45.55;;;;;;;;;;5047362;28;20116;-55
2022/04/17 08:04:47;;;;;;;71.67;48.83;;;;;;;;;;5038640;28;20506;-56
2022/04/17 08:07:14;;;;;;;65.45;42.28;;;;;;;;;;5034297;28;20122;-56
2022/04/17 08:09:40;;;;;;;63.97;44.30;;;;;;;;;;5048467;28;20812;-54
2022/04/17 08:12:06;;;;;;;60.22;40.83;;;;;;;;;;5047980;28;20080;-56
2022/04/17 08:14:32;;;;;;;72.00;45.50;;;;;;;;;;5047837;28;20021;-55
2022/04/17 08:16:58;;;;;;;58.40;41.47;;;;;;;;;;5048164;28;20499;-55
2022/04/17 08:19:24;;;;;;;60.15;41.92;;;;;;;;;;5043047;28;20036;-54
2022/04/17 08:21:51;;;;;;;65.18;41.08;;;;;;;;;;5048032;28;20036;-53
2022/04/17 08:24:18;;;;;;;59.03;40.38;;;;;;;;;;5048051;28;20044;-55
2022/04/17 08:26:44;;;;;;;61.78;39.28;;;;;;;;;;5047836;28;20040;-55
2022/04/17 08:29:10;;;;;;;63.10;40.65;;;;;;;;;;5047855;28;20498;-54
2022/04/17 08:31:36;;;;;;;53.88;35.35;;;;;;;;;;5047678;28;20048;-53
2022/04/17 08:34:03;;;;;;;59.92;36.38;;;;;;;;;;5041880;28;20463;-52
2022/04/17 08:36:29;;;;;;;59.05;36.30;;;;;;;;;;5048310;28;20083;-54
2022/04/17 08:38:55;;;;;;;56.65;33.60;;;;;;;;;;5046144;28;20479;-49
2022/04/17 08:41:22;;;;;;;52.65;33.20;;;;;;;;;;5042167;28;20819;-49
2022/04/17 08:43:48;;;;;;;71.85;34.03;;;;;;;;;;5048141;28;20410;-47
2022/04/17 08:46:14;;;;;;;59.60;34.70;;;;;;;;;;5048068;28;20107;-46
2022/04/17 08:48:41;;;;;;;53.30;32.45;;;;;;;;;;5041758;28;20242;-53
2022/04/17 08:51:08;;;;;;;58.65;35.03;;;;;;;;;;5044318;28;20436;-48
2022/04/17 08:53:34;;;;;;;56.30;33.63;;;;;;;;;;5040446;28;20025;-49
2022/04/17 08:56:01;;;;;;;60.55;33.55;;;;;;;;;;5039522;28;20060;-53
2022/04/17 08:58:27;;;;;;;55.92;33.45;;;;;;;;;;5038203;28;20021;-50
2022/04/17 09:00:53;;;;;;;54.35;34.45;;;;;;;;;;5042501;28;20082;-49
2022/04/17 09:03:19;;;;;;;56.00;36.08;;;;;;;;;;5041492;28;20045;-53
2022/04/17 09:05:45;;;;;;;48.97;32.35;;;;;;;;;;5044881;28;20448;-51
2022/04/17 09:08:19;;;;;;;48.20;32.55;;;;;;;;;;5041005;28;20087;-54
2022/04/17 09:10:58;;;;;;;54.30;31.52;;;;;;;;;;5045207;28;20017;-53
2022/04/17 09:13:28;;;;;;;51.30;31.40;;;;;;;;;;5039370;28;21759;-53
2022/04/17 09:15:55;;;;;;;46.38;29.77;;;;;;;;;;5044707;28;20159;-50
2022/04/17 09:18:21;;;;;;;49.17;30.20;;;;;;;;;;5040524;28;20037;-50
2022/04/17 09:20:47;;;;;;;59.50;32.22;;;;;;;;;;5044741;28;20029;-51
2022/04/17 09:23:13;;;;;;;52.45;29.75;;;;;;;;;;5049979;28;20040;-49
2022/04/17 09:25:40;;;;;;;40.25;28.27;;;;;;;;;;5051558;28;20029;-50
2022/04/17 09:28:07;;;;;;;43.47;29.15;;;;;;;;;;5050769;28;20075;-49
2022/04/17 09:30:35;;;;;;;51.38;28.20;;;;;;;;;;5050887;28;20056;-50
2022/04/17 09:33:05;;;;;;;52.30;31.73;;;;;;;;;;5050809;28;20083;-47
2022/04/17 09:35:31;;;;;;;;;;;;;;;;;;5051713;28;20025;-52
2022/04/17 09:37:59;;;;;;;51.63;26.33;;;;;;;;;;5051550;28;20346;-51
2022/04/17 09:40:25;;;;;;;45.78;25.98;;;;;;;;;;5051252;28;20060;-46
2022/04/17 09:43:07;;;;;;;43.65;26.27;;;;;;;;;;5051299;28;20021;-52
2022/04/17 09:45:33;;;;;;;38.95;25.83;;;;;;;;;;5050688;28;20072;-51
2022/04/17 09:47:59;;;;;;;50.28;24.63;;;;;;;;;;5049875;28;20509;-49
2022/04/17 09:50:35;;;;;;;47.85;25.98;;;;;;;;;;5050378;28;20028;-52
2022/04/17 09:53:05;;;;;;;42.88;23.48;;;;;;;;;;5048365;28;20025;-59
2022/04/17 09:55:38;;;;;;;46.38;24.85;;;;;;;;;;5048041;28;20037;-49
2022/04/17 09:58:04;;;;;;;44.92;23.83;;;;;;;;;;5049588;28;20021;-55
2022/04/17 10:00:40;;;;;;;31.27;19.58;;;;;;;;;;5037003;28;20030;-55
2022/04/17 10:03:08;;;;;;;42.83;21.38;;;;;;;;;;5044371;28;20025;-50
2022/04/17 10:05:34;;;;;;;32.45;17.67;;;;;;;;;;5038354;28;20038;-53
2022/04/17 10:08:01;;;;;;;26.30;16.00;;;;;;;;;;5049085;28;20112;-54
2022/04/17 10:10:27;;;;;;;32.20;17.65;;;;;;;;;;5047089;28;20547;-52
2022/04/17 10:12:54;;;;;;;15.88;9.18;;;;;;;;;;5047851;28;20065;-52
2022/04/17 10:15:20;;;;;;;14.65;7.35;;;;;;;;;;5048227;28;20407;-55
2022/04/17 10:17:46;;;;;;;17.70;6.10;;;;;;;;;;5039439;28;20029;-55
2022/04/17 10:20:13;;;;;;;9.90;4.63;;;;;;;;;;5034309;28;20056;-53
2022/04/17 10:22:40;;;;;;;9.98;4.47;;;;;;;;;;5042575;28;20036;-55
2022/04/17 10:25:10;;;;;;;7.85;4.18;;;;;;;;;;5048524;28;20072;-55
2022/04/17 10:27:36;;;;;;;9.10;4.60;;;;;;;;;;5047889;28;20035;-52
2022/04/17 10:30:07;;;;;;;6.50;4.07;;;;;;;;;;5049440;28;20037;-55
2022/04/17 10:32:33;;;;;;;9.82;3.75;;;;;;;;;;5042011;28;20499;-56
2022/04/17 10:35:18;;;;;;;8.32;3.95;;;;;;;;;;5042295;28;20052;-54
2022/04/17 10:38:09;;;;;;;9.13;4.40;;;;;;;;;;5040505;28;20047;-56
2022/04/17 10:40:35;;;;;;;8.52;4.30;;;;;;;;;;5041578;28;20025;-55
2022/04/17 10:43:01;;;;;;;7.15;4.40;;;;;;;;;;5044466;28;20024;-55
2022/04/17 10:45:31;;;;;;;8.73;4.95;;;;;;;;;;5040127;28;20030;-54
2022/04/17 10:48:03;;;;;;;6.38;4.72;;;;;;;;;;5042681;28;20060;-54
2022/04/17 10:50:48;;;;;;;9.13;4.50;;;;;;;;;;5039485;28;20034;-52
2022/04/17 10:53:27;;;;;;;7.35;4.47;;;;;;;;;;5043192;28;20128;-51
2022/04/17 10:56:09;;;;;;;8.25;4.72;;;;;;;;;;5041055;28;20565;-53
2022/04/17 10:58:45;;;;;;;11.43;5.03;;;;;;;;;;5043006;28;20029;-52
2022/04/17 11:01:11;;;;;;;10.65;4.03;;;;;;;;;;5039826;28;20025;-55
2022/04/17 11:03:38;;;;;;;10.80;4.43;;;;;;;;;;5041486;28;20045;-55
2022/04/17 11:06:33;;;;;;;9.57;4.13;;;;;;;;;;5039906;28;20840;-55
2022/04/17 11:09:13;;;;;;;10.52;4.25;;;;;;;;;;5040091;28;20017;-55
2022/04/17 11:11:40;;;;;;;8.60;4.88;;;;;;;;;;5040250;28;20419;-55
2022/04/17 11:14:11;;;;;;;9.05;4.20;;;;;;;;;;5040209;28;20707;-55
2022/04/17 11:16:42;;;;;;;9.48;4.68;;;;;;;;;;5041001;28;20066;-54
2022/04/17 11:19:12;;;;;;;10.98;4.35;;;;;;;;;;5039351;28;20571;-53
2022/04/17 11:21:38;;;;;;;;;;;;;;;;;;5040371;28;20095;-54
2022/04/17 11:24:04;;;;;;;11.40;4.38;;;;;;;;;;5037531;28;19991;-53
2022/04/17 11:26:49;;;;;;;8.02;4.47;;;;;;;;;;5038832;28;20029;-53
2022/04/17 11:29:15;;;;;;;10.07;5.38;;;;;;;;;;5040646;28;20028;-55
2022/04/17 11:31:41;;;;;;;10.75;5.50;;;;;;;;;;5038132;28;20466;-54
2022/04/17 11:34:07;;;;;;;8.90;5.15;;;;;;;;;;5038803;28;20116;-55
2022/04/17 11:36:33;;;;;;;8.02;5.45;;;;;;;;;;5041054;28;20087;-54
2022/04/17 11:38:59;;;;;;;11.68;6.45;;;;;;;;;;5036423;28;20120;-53
2022/04/17 11:41:26;;;;;;;8.10;5.07;;;;;;;;;;5037593;28;20025;-51
2022/04/17 11:44:02;;;;;;;8.23;5.47;;;;;;;;;;5037945;28;20072;-54
2022/04/17 11:46:28;;;;;;;9.15;5.32;;;;;;;;;;5042993;28;20017;-55
2022/04/17 11:48:55;;;;;;;9.43;5.97;;;;;;;;;;5037790;28;20032;-54
2022/04/17 11:51:21;;;;;;;7.90;5.15;;;;;;;;;;5042523;28;20116;-54
2022/04/17 11:53:47;;;;;;;10.15;5.72;;;;;;;;;;5038766;28;20593;-50
2022/04/17 11:56:13;;;;;;;10.25;5.68;;;;;;;;;;5040968;28;20358;-55
2022/04/17 11:58:39;;;;;;;8.75;5.30;;;;;;;;;;5040111;28;20032;-55
2022/04/17 12:01:06;;;;;;;7.63;4.82;;;;;;;;;;5040914;28;20064;-56
2022/04/17 12:03:55;;;;;;;7.88;5.32;;;;;;;;;;5035088;28;20090;-55
2022/04/17 12:06:25;;;;;;;8.07;5.72;;;;;;;;;;5042565;28;20441;-55
2022/04/17 12:08:51;;;;;;;8.27;4.93;;;;;;;;;;5037802;28;20055;-53
2022/04/17 12:11:18;;;;;;;8.68;5.68;;;;;;;;;;5042094;28;20117;-55
2022/04/17 12:13:44;;;;;;;8.50;5.53;;;;;;;;;;5039199;28;20025;-55
2022/04/17 12:16:10;;;;;;;8.45;5.70;;;;;;;;;;5041021;28;20029;-53
2022/04/17 12:18:36;;;;;;;8.18;5.47;;;;;;;;;;5038263;28;20025;-56
2022/04/17 12:21:06;;;;;;;7.78;5.43;;;;;;;;;;5041443;28;20502;-54
2022/04/17 12:23:32;;;;;;;8.07;5.35;;;;;;;;;;5037377;28;20116;-55
2022/04/17 12:25:59;;;;;;;9.07;6.18;;;;;;;;;;5040420;28;20056;-52
2022/04/17 12:28:26;;;;;;;7.63;5.90;;;;;;;;;;5040194;28;20131;-55
2022/04/17 12:30:52;;;;;;;7.50;4.88;;;;;;;;;;5039475;28;20052;-55
2022/04/17 12:33:26;;;;;;;10.50;5.78;;;;;;;;;;5037994;28;20124;-57
2022/04/17 12:36:22;;;;;;;9.98;5.20;;;;;;;;;;5038579;28;20028;-54
2022/04/17 12:38:58;;;;;;;8.18;5.63;;;;;;;;;;5032427;28;20048;-56
2022/04/17 12:41:28;;;;;;;7.05;5.25;;;;;;;;;;5040858;28;20745;-54
2022/04/17 12:43:54;;;;;;;12.82;6.07;;;;;;;;;;5041525;28;20037;-58
2022/04/17 12:46:45;;;;;;;6.75;4.97;;;;;;;;;;5039101;28;20471;-52
2022/04/17 12:49:15;;;;;;;9.13;5.88;;;;;;;;;;5038233;28;20037;-54
2022/04/17 12:51:54;;;;;;;10.90;6.13;;;;;;;;;;5038436;28;20025;-56
2022/04/17 12:54:20;;;;;;;8.27;5.13;;;;;;;;;;5037800;28;20029;-54
2022/04/17 12:56:47;;;;;;;9.38;5.97;;;;;;;;;;5039501;28;20858;-56
2022/04/17 12:59:19;;;;;;;8.63;5.60;;;;;;;;;;5039753;28;20021;-54
2022/04/17 13:01:48;;;;;;;7.50;5.50;;;;;;;;;;5036935;28;20811;-55
2022/04/17 13:04:19;;;;;;;9.00;5.78;;;;;;;;;;5039121;28;20123;-55
2022/04/17 13:06:45;;;;;;;9.70;5.80;;;;;;;;;;5038145;28;20025;-54
2022/04/17 13:09:13;;;;;;;7.47;5.20;;;;;;;;;;5040882;28;20029;-55
2022/04/17 13:11:53;;;;;;;7.30;5.28;;;;;;;;;;5037926;28;20025;-54
2022/04/17 13:14:19;;;;;;;;;;;;;;;;;;5043422;28;20061;-54
2022/04/17 13:16:49;;;;;;;7.70;5.35;;;;;;;;;;5036074;28;19956;-55
2022/04/17 13:19:16;;;;;;;14.70;7.00;;;;;;;;;;5038462;28;20395;-52
2022/04/17 13:21:42;;;;;;;18.35;5.72;;;;;;;;;;5028673;28;20033;-53
2022/04/17 13:24:13;;;;;;;7.07;4.60;;;;;;;;;;5043930;28;20052;-55
2022/04/17 13:26:39;;;;;;;13.52;4.68;;;;;;;;;;5047814;28;20166;-53
2022/04/17 13:29:06;;;;;;;8.65;4.57;;;;;;;;;;5047023;28;20111;-54
2022/04/17 13:31:32;;;;;;;7.80;3.97;;;;;;;;;;5042605;28;20054;-54
2022/04/17 13:33:57;;;;;;;7.65;3.85;;;;;;;;;;5036999;28;20026;-55
2022/04/17 13:36:23;;;;;;;6.25;3.75;;;;;;;;;;5044268;28;20029;-54
2022/04/17 13:38:50;;;;;;;6.82;3.72;;;;;;;;;;5046901;28;20103;-52
2022/04/17 13:41:17;;;;;;;6.38;3.50;;;;;;;;;;5047783;28;20032;-56
2022/04/17 13:43:43;;;;;;;8.20;3.63;;;;;;;;;;5045708;28;20128;-53
2022/04/17 13:46:10;;;;;;;5.60;3.50;;;;;;;;;;5033813;28;20052;-54
2022/04/17 13:48:38;;;;;;;6.60;3.75;;;;;;;;;;5037002;28;20463;-51
2022/04/17 13:51:06;;;;;;;5.55;3.22;;;;;;;;;;5039445;28;20083;-52
2022/04/17 13:53:35;;;;;;;5.90;3.55;;;;;;;;;;5050035;28;20017;-54
2022/04/17 13:56:01;;;;;;;6.97;3.20;;;;;;;;;;5049711;28;20025;-52
2022/04/17 13:58:27;;;;;;;7.03;2.78;;;;;;;;;;5049253;28;20112;-52
2022/04/17 14:00:56;;;;;;;9.25;3.50;;;;;;;;;;5048340;28;20079;-53
2022/04/17 14:03:22;;;;;;;7.75;4.10;;;;;;;;;;5030422;28;20036;-51
2022/04/17 14:05:48;;;;;;;10.20;4.07;;;;;;;;;;5048545;28;20107;-52
2022/04/17 14:08:14;;;;;;;8.10;4.15;;;;;;;;;;5049869;28;20033;-53
2022/04/17 14:10:40;;;;;;;8.57;4.15;;;;;;;;;;5049891;28;20163;-54
2022/04/17 14:13:08;;;;;;;5.68;3.67;;;;;;;;;;5050773;28;20028;-54
2022/04/17 14:15:34;;;;;;;7.65;3.75;;;;;;;;;;5049144;28;20036;-54
2022/04/17 14:18:01;;;;;;;9.48;4.03;;;;;;;;;;5047687;28;20031;-53
2022/04/17 14:20:27;;;;;;;10.20;4.30;;;;;;;;;;5049994;28;20034;-53
2022/04/17 14:22:53;;;;;;;7.28;3.97;;;;;;;;;;5049835;28;20337;-53
2022/04/17 14:25:20;;;;;;;8.20;4.63;;;;;;;;;;5050296;28;20029;-52
2022/04/17 14:27:46;;;;;;;7.82;4.10;;;;;;;;;;5050234;28;20107;-53
2022/04/17 14:30:12;;;;;;;6.68;3.83;;;;;;;;;;5049524;28;20036;-53
2022/04/17 14:32:38;;;;;;;8.93;4.43;;;;;;;;;;5040039;28;20128;-53
2022/04/17 14:35:05;;;;;;;7.28;3.83;;;;;;;;;;5050026;28;20021;-48
2022/04/17 14:37:31;;;;;;;7.32;4.45;;;;;;;;;;5049833;28;20111;-52
2022/04/17 14:39:57;;;;;;;6.15;4.00;;;;;;;;;;5049905;28;20112;-53
2022/04/17 14:42:23;;;;;;;8.15;4.38;;;;;;;;;;5049385;28;20029;-50
2022/04/17 14:44:49;;;;;;;8.25;4.20;;;;;;;;;;5049869;28;20037;-52